• Join FlightAware (Why Join?)
  • Login
  • US Flag 
06:57AM EDT


 

Airport Tracker/Info


-or-


 

Live Flight TrackerFlight Track Log ✈ AWE3417 ✈ 30-Apr-2013 ✈ KMHT - KDCA

Flight Track Log - Related Links

Times and Time Zones

All times are in EDT time to prevent confusion due to time zone crossing. See the AWE3417 flight status page for this flight to view local times or setup timezone preferences in your user account.

Time Position Orientation Groundspeed Altitude Reporting Facility
EDT Latitude Longitude Course Direction KTS MPH feet Rate Location/Type
05:24PM 42.9167 -71.4167 202° Southwest 139 160 1,300  Level KA90
05:25PM 42.8525 -71.4603 206° Southwest 216 249 4,400 2,640 Climbing Boston Center
05:26PM 43.0532 -71.0905 65° Northeast  Level FlightAware Approximate
05:26PM 42.8292 -71.3897 114° Southeast 182 209 7,500  Level Boston Center
05:27PM 43.0745 -70.9701 132° Southeast  Level FlightAware Approximate
05:27PM 42.8867 -71.3122 45° Northeast 149 171 10,700  Level Boston Center
05:28PM 43.0010 -70.8843 144° Southeast  Level FlightAware Approximate
05:28PM 42.9464 -71.2461 39° Northeast 262 302 13,400  Level Boston Center
05:29PM 42.9137 -70.9054 202° Southwest  Level FlightAware Approximate
05:29PM 43.0247 -71.1564 40° Northeast 320 368 17,000  Level Boston Center
05:30PM 43.0714 -71.0617 56° Northeast 325 374 19,000 2,220 Climbing Boston Center
05:31PM 43.0244 -70.9575 122° Southeast 258 297 21,500 2,280 Climbing Boston Center
05:32PM 42.9200 -70.9544 179° South 248 285 23,600 1,980 Climbing Boston Center
05:33PM 42.8078 -70.9683 185° South 330 380 25,500 1,860 Climbing Boston Center
05:34PM 42.7022 -71.0219 200° South 358 412 27,400 1,200 Climbing Boston Center
05:35PM 42.5944 -71.0750 200° South 389 448 28,000 300 Climbing Boston Center
05:36PM 42.4886 -71.1281 200° South 404 465 28,000  Level Boston Center
05:37PM 42.4042 -71.2228 220° Southwest 404 465 28,000 120 Level Boston Center
05:38PM 42.3597 -71.3611 247° West 389 448 28,300 900 Climbing Boston Center
05:39PM 42.3194 -71.4967 248° West 389 448 29,900 840 Climbing Boston Center
05:40PM 42.2725 -71.6319 245° Southwest 394 453 30,000  Climbing Boston Center
05:41PM 42.2317 -71.7644 247° West 388 447 30,000  Level Boston Center
05:42PM 42.1906 -71.8936 247° West 383 441 30,000  Level Boston Center
05:43PM 42.1494 -72.0311 248° West 388 447 30,000  Level Boston Center
05:44PM 42.1083 -72.1603 247° West 388 447 30,000  Level Boston Center
05:45PM 42.0564 -72.2864 241° Southwest 388 447 30,000  Level Boston Center
05:46PM 41.9897 -72.3983 231° Southwest 388 447 30,000  Level Boston Center
05:47PM 41.9211 -72.5125 231° Southwest 393 452 30,000  Level Boston Center
05:48PM 41.8542 -72.6269 232° Southwest 393 452 30,000  Level Boston Center
05:49PM 41.7894 -72.7381 232° Southwest 394 453 30,000  Level Boston Center
05:50PM 41.7222 -72.8489 231° Southwest 394 453 30,000  Level Boston Center
05:51PM 41.6553 -72.9597 231° Southwest 394 453 30,000  Level Boston Center
05:52PM 41.5900 -73.0731 232° Southwest 394 453 30,000  Level Boston Center
05:54PM 41.4856 -73.2444 231° Southwest 356 410 30,000  Level New York Center
05:55PM 41.4186 -73.3553 231° Southwest 370 426 30,000  Level New York Center
05:56PM 41.3558 -73.4633 232° Southwest 377 434 30,000  Level New York Center
05:57PM 41.2886 -73.5739 231° Southwest 383 441 30,000  Level New York Center
05:58PM 41.2236 -73.6842 232° Southwest 389 448 30,000  Level New York Center
05:59PM 41.1561 -73.7942 231° Southwest 389 448 30,000  Level New York Center
06:00PM 41.0931 -73.9014 232° Southwest 389 448 30,000 -420 Level New York Center
06:01PM 41.0297 -74.0114 233° Southwest 389 448 29,200 -900 Descending New York Center
06:02PM 40.9642 -74.1208 232° Southwest 389 448 28,300 -1,080 Descending New York Center
06:03PM 40.8858 -74.2378 228° Southwest 389 448 27,100 -1,140 Descending New York Center
06:04PM 40.8178 -74.3519 232° Southwest 395 455 26,100 -600 Descending New York Center
06:05PM 40.7519 -74.4608 231° Southwest 395 455 26,000 -60 Descending New York Center
06:06PM 40.6836 -74.5750 232° Southwest 390 449 26,000 -360 Level New York Center
06:07PM 40.6175 -74.6833 231° Southwest 390 449 25,300 -900 Descending New York Center
06:08PM 40.5472 -74.7914 229° Southwest 390 449 24,300 -1,020 Descending New York Center
06:09PM 40.4769 -74.8936 228° Southwest 390 449 23,300 -1,020 Descending New York Center
06:10PM 40.4069 -74.9931 227° Southwest 380 437 22,300 -660 Descending New York Center
06:11PM 40.3367 -75.0922 227° Southwest 375 432 22,000 -180 Descending New York Center
06:12PM 40.2642 -75.1911 226° Southwest 380 437 22,000  Level New York Center
06:13PM 40.1936 -75.2925 228° Southwest 380 437 22,000  Level New York Center
06:14PM 40.1231 -75.3911 227° Southwest 380 437 22,000  Level New York Center
06:15PM 40.0503 -75.4919 227° Southwest 380 437 22,000  Level New York Center
06:16PM 39.9794 -75.5928 228° Southwest 380 437 22,000  Level New York Center
06:17PM 39.9086 -75.6936 228° Southwest 385 443 22,000  Level New York Center
06:18PM 39.8519 -75.8031 236° Southwest 385 443 22,000  Level New York Center
06:19PM 39.7928 -75.9150 236° Southwest 380 437 22,000 -360 Level New York Center
06:20PM 39.7336 -76.0269 236° Southwest 380 437 21,400 -1,680 Descending New York Center
06:21PM 39.6769 -76.1306 235° Southwest 375 432 18,700 -2,400 Descending New York Center
06:22PM 39.6422 -76.2492 249° West 356 410 16,700 -1,380 Descending New York Center
06:23PM 39.6289 -76.3533 261° West 342 394 16,000 -780 Descending New York Center
06:24PM 39.6167 -76.4833 263° West 336 387 15,200 -1,380 Descending Potomac TRACON
06:25PM 39.5667 -76.5667 232° Southwest 345 397 13,400 -1,560 Descending Potomac TRACON
06:26PM 39.4667 -76.6000 194° South 331 381 12,100 -720 Descending Potomac TRACON
06:27PM 39.3833 -76.6167 189° South 327 376 12,000 -420 Descending Potomac TRACON
06:28PM 39.2833 -76.6333 187° South 329 379 11,300 -900 Descending Potomac TRACON
06:29PM 39.2000 -76.6500 189° South 321 369 10,300 -660 Descending Potomac TRACON
06:30PM 39.1333 -76.7000 210° Southwest 289 333 10,000 -180 Descending Potomac TRACON
06:31PM 39.0667 -76.7833 224° Southwest 293 337 10,000 -840 Level Potomac TRACON
06:32PM 39.0167 -76.8500 226° Southwest 288 331 8,400 -1,800 Descending Potomac TRACON
06:33PM 38.9667 -76.9167 226° Southwest 282 325 6,600 -1,200 Descending Potomac TRACON
06:34PM 38.9000 -76.9500 201° Southwest 232 267 6,000 -300 Descending Potomac TRACON
06:35PM 38.8333 -76.9500 180° South 209 241 6,000 -480 Level Potomac TRACON
06:36PM 38.7833 -76.9500 180° South 191 220 5,100 -540 Descending Potomac TRACON
06:37PM 38.7333 -76.9333 165° South 174 200 5,000 -60 Descending Potomac TRACON
06:38PM 38.6833 -76.9333 180° South 173 199 5,000  Level Potomac TRACON
06:39PM 38.6333 -76.9333 180° South 173 199 5,000  Level Potomac TRACON
06:40PM 38.6000 -76.9333 180° South 174 200 5,000 -180 Level Potomac TRACON
06:41PM 38.5500 -76.9333 180° South 192 221 4,700 -540 Descending Potomac TRACON
06:42PM 38.5667 -77.0000 288° West 206 237 4,000 -360 Descending Potomac TRACON
06:43PM 38.6167 -77.0167 345° North 180 207 4,000 -120 Level Potomac TRACON
06:43PM 38.6500 -77.0167 360° North 174 200 3,800 -540 Descending Potomac TRACON
06:44PM 38.7000 -77.0167 360° North 155 178 3,000 -900 Descending Potomac TRACON
06:46PM 38.7500 -77.0333 345° North 154 177 2,000 -900 Descending Potomac TRACON
06:46PM 38.7833 -77.0333 360° North 140 161 1,300 -720 Descending Potomac TRACON
06:47PM 38.8167 -77.0333 360° North 125 144 700 -600 Descending Potomac TRACON